createdAt,value
2018-09-25T00:02:31.956Z,8.25
2018-09-25T00:05:05.697Z,8.21
2018-09-25T00:07:39.536Z,8.11
2018-09-25T00:10:13.263Z,8.10
2018-09-25T00:12:47.037Z,8.10
2018-09-25T00:15:20.878Z,8.00
2018-09-25T00:17:54.702Z,7.99
2018-09-25T00:20:28.517Z,7.95
2018-09-25T00:23:02.211Z,7.90
2018-09-25T00:25:35.936Z,7.88
2018-09-25T00:28:09.682Z,7.94
2018-09-25T00:30:43.562Z,7.85
2018-09-25T00:33:17.410Z,7.80
2018-09-25T00:35:51.029Z,7.78
2018-09-25T00:38:24.592Z,7.67
2018-09-25T00:40:58.356Z,7.50
2018-09-25T00:43:32.209Z,7.39
2018-09-25T00:46:05.986Z,7.30
2018-09-25T00:48:39.557Z,7.13
2018-09-25T00:51:13.286Z,7.07
2018-09-25T00:53:47.105Z,6.99
2018-09-25T00:56:20.715Z,6.91
2018-09-25T00:58:54.674Z,6.86
2018-09-25T01:01:28.422Z,6.80
2018-09-25T01:04:02.206Z,6.71
2018-09-25T01:06:36.014Z,6.71
2018-09-25T01:09:11.427Z,6.66
2018-09-25T01:11:45.076Z,6.56
2018-09-25T01:14:18.964Z,6.56
2018-09-25T01:16:53.098Z,6.59
2018-09-25T01:19:26.875Z,6.55
2018-09-25T01:22:00.625Z,6.54
2018-09-25T01:24:34.413Z,6.59
2018-09-25T01:27:08.022Z,6.52
2018-09-25T01:29:41.817Z,6.53
2018-09-25T01:32:15.454Z,6.65
2018-09-25T01:34:49.212Z,6.48
2018-09-25T01:37:22.828Z,6.43
2018-09-25T01:39:56.480Z,6.39
2018-09-25T01:42:30.010Z,6.39
2018-09-25T01:45:03.729Z,6.39
2018-09-25T01:47:37.498Z,6.36
2018-09-25T01:50:11.320Z,6.39
2018-09-25T01:52:45.022Z,6.46
2018-09-25T01:55:18.777Z,6.59
2018-09-25T01:57:52.960Z,6.62
2018-09-25T02:00:26.610Z,6.77
2018-09-25T02:03:00.293Z,6.61
2018-09-25T02:05:33.930Z,6.55
2018-09-25T02:08:07.689Z,6.63
2018-09-25T02:10:41.471Z,6.73
2018-09-25T02:13:15.230Z,6.72
2018-09-25T02:15:48.878Z,6.59
2018-09-25T02:18:22.521Z,6.52
2018-09-25T02:20:56.305Z,6.51
2018-09-25T02:23:29.942Z,6.69
2018-09-25T02:26:03.742Z,6.86
2018-09-25T02:28:37.507Z,6.71
2018-09-25T02:31:11.230Z,6.57
2018-09-25T02:33:44.988Z,6.52
2018-09-25T02:36:18.787Z,6.40
2018-09-25T02:38:52.447Z,6.40
2018-09-25T02:41:26.255Z,6.46
2018-09-25T02:44:00.062Z,6.41
2018-09-25T02:46:33.783Z,6.32
2018-09-25T02:49:07.593Z,6.22
2018-09-25T02:51:41.196Z,6.23
2018-09-25T02:54:17.938Z,6.29
2018-09-25T02:56:51.908Z,6.29
2018-09-25T02:59:25.546Z,6.23
2018-09-25T03:01:59.286Z,6.19
2018-09-25T03:04:33.062Z,6.12
2018-09-25T03:07:07.149Z,6.10
2018-09-25T03:09:40.786Z,6.05
2018-09-25T03:12:14.553Z,5.90
2018-09-25T03:14:48.318Z,5.81
2018-09-25T03:17:22.158Z,5.84
2018-09-25T03:19:55.879Z,5.77
2018-09-25T03:22:29.599Z,5.75
2018-09-25T03:25:03.357Z,5.65
2018-09-25T03:27:37.122Z,5.63
2018-09-25T03:30:11.850Z,5.61
2018-09-25T03:32:45.480Z,5.61
2018-09-25T03:35:19.264Z,5.64
2018-09-25T03:37:52.866Z,5.59
2018-09-25T03:40:26.362Z,5.58
2018-09-25T03:42:59.878Z,5.57
2018-09-25T03:45:33.710Z,5.54
2018-09-25T03:48:07.591Z,5.42
2018-09-25T03:50:41.305Z,5.43
2018-09-25T03:53:14.984Z,5.53
2018-09-25T03:55:48.790Z,5.46
2018-09-25T03:58:22.433Z,5.37
2018-09-25T04:00:55.945Z,5.37
2018-09-25T04:03:29.483Z,5.24
2018-09-25T04:06:03.145Z,5.12
2018-09-25T04:08:36.721Z,5.13
2018-09-25T04:11:10.495Z,5.23
2018-09-25T04:13:44.267Z,5.21
2018-09-25T04:16:18.086Z,5.17
2018-09-25T04:18:51.920Z,5.11
2018-09-25T04:21:25.661Z,5.11
2018-09-25T04:23:59.335Z,5.13
2018-09-25T04:26:33.266Z,5.14
2018-09-25T04:29:06.993Z,5.06
2018-09-25T04:31:41.276Z,5.12
2018-09-25T04:34:14.913Z,5.06
2018-09-25T04:36:48.681Z,4.94
2018-09-25T04:39:22.463Z,5.00
2018-09-25T04:41:56.275Z,4.97
2018-09-25T04:44:33.282Z,4.90
2018-09-25T04:47:07.284Z,4.91
2018-09-25T04:49:41.085Z,4.92
2018-09-25T04:52:14.822Z,4.89
2018-09-25T04:54:48.505Z,4.86
2018-09-25T04:57:22.309Z,4.83
2018-09-25T04:59:56.133Z,4.78
2018-09-25T05:02:29.937Z,4.67
2018-09-25T05:05:03.469Z,4.69
2018-09-25T05:07:37.208Z,4.69
2018-09-25T05:10:10.873Z,4.72
2018-09-25T05:12:44.675Z,4.58
2018-09-25T05:15:18.308Z,4.66
2018-09-25T05:17:52.086Z,4.67
2018-09-25T05:20:25.886Z,4.64
2018-09-25T05:22:59.650Z,4.65
2018-09-25T05:25:33.173Z,4.64
2018-09-25T05:28:06.653Z,4.62
2018-09-25T05:30:40.437Z,4.58
2018-09-25T05:33:14.192Z,4.55
2018-09-25T05:35:47.915Z,4.62
2018-09-25T05:38:21.521Z,4.66
2018-09-25T05:40:55.288Z,4.61
2018-09-25T05:43:28.942Z,4.64
2018-09-25T05:46:02.708Z,4.73
2018-09-25T05:48:36.614Z,4.85
2018-09-25T05:51:10.390Z,4.94
2018-09-25T05:53:44.162Z,4.96
2018-09-25T05:56:17.848Z,5.03
2018-09-25T05:58:51.623Z,5.04
2018-09-25T06:01:25.437Z,5.12
2018-09-25T06:03:59.267Z,5.18
2018-09-25T06:06:33.821Z,5.26
2018-09-25T06:09:07.517Z,5.27
2018-09-25T06:11:41.120Z,5.46
2018-09-25T06:14:14.991Z,5.56
2018-09-25T06:16:48.622Z,5.67
2018-09-25T06:19:22.142Z,5.79
2018-09-25T06:21:55.914Z,5.89
2018-09-25T06:24:29.717Z,6.00
2018-09-25T06:27:03.461Z,6.02
2018-09-25T06:29:37.085Z,6.17
2018-09-25T06:32:10.913Z,6.22
2018-09-25T06:34:44.744Z,6.39
2018-09-25T06:37:18.495Z,6.45
2018-09-25T06:39:52.201Z,6.55
2018-09-25T06:42:26.013Z,6.72
2018-09-25T06:44:59.728Z,6.87
2018-09-25T06:47:33.390Z,7.05
2018-09-25T06:50:07.447Z,7.11
2018-09-25T06:52:41.381Z,7.18
2018-09-25T06:55:15.214Z,7.18
2018-09-25T06:57:48.839Z,7.25
2018-09-25T07:00:22.486Z,7.46
2018-09-25T07:02:56.278Z,7.64
2018-09-25T07:05:29.994Z,7.75
2018-09-25T07:08:03.797Z,7.83
2018-09-25T07:10:37.572Z,7.88
2018-09-25T07:13:11.496Z,8.06
2018-09-25T07:15:45.080Z,8.05
2018-09-25T07:18:18.766Z,8.18
2018-09-25T07:20:52.490Z,8.22
2018-09-25T07:23:26.026Z,8.41
2018-09-25T07:25:59.633Z,8.60
2018-09-25T07:28:33.419Z,8.76
2018-09-25T07:31:07.179Z,8.92
2018-09-25T07:33:40.840Z,9.08
2018-09-25T07:36:14.413Z,9.22
2018-09-25T07:38:48.175Z,9.31
2018-09-25T07:41:21.737Z,9.44
2018-09-25T07:43:55.234Z,9.41
2018-09-25T07:46:28.928Z,9.56
2018-09-25T07:49:02.576Z,9.60
2018-09-25T07:51:36.161Z,9.80
2018-09-25T07:54:10.717Z,9.97
2018-09-25T07:56:44.697Z,9.94
2018-09-25T07:59:18.521Z,10.10
2018-09-25T08:01:52.101Z,10.23
2018-09-25T08:04:25.761Z,10.23
2018-09-25T08:07:00.518Z,10.33
2018-09-25T08:09:34.157Z,10.51
2018-09-25T08:12:07.781Z,10.54
2018-09-25T08:14:41.552Z,10.45
2018-09-25T08:17:15.325Z,10.47
2018-09-25T08:19:54.958Z,10.72
2018-09-25T08:22:28.779Z,10.79
2018-09-25T08:25:02.349Z,10.68
2018-09-25T08:27:35.967Z,10.62
2018-09-25T08:30:09.845Z,10.71
2018-09-25T08:32:45.072Z,10.68
2018-09-25T08:35:18.986Z,10.82
2018-09-25T08:37:52.818Z,11.04
2018-09-25T08:40:27.127Z,10.93
2018-09-25T08:43:01.214Z,10.90
2018-09-25T08:46:29.609Z,10.93
2018-09-25T08:49:03.926Z,11.03
2018-09-25T08:51:37.731Z,11.02
2018-09-25T08:54:11.246Z,11.12
2018-09-25T08:56:45.047Z,11.06
2018-09-25T08:59:18.854Z,11.13
2018-09-25T09:01:52.362Z,11.16
2018-09-25T09:04:26.189Z,11.15
2018-09-25T09:07:00.019Z,11.15
2018-09-25T09:09:33.662Z,11.14
2018-09-25T09:12:07.482Z,11.19
2018-09-25T09:14:41.222Z,11.28
2018-09-25T09:17:15.005Z,11.35
2018-09-25T09:19:48.698Z,11.28
2018-09-25T09:22:22.378Z,11.29
2018-09-25T09:24:56.026Z,11.29
2018-09-25T09:27:29.773Z,11.50
2018-09-25T09:30:03.393Z,11.69
2018-09-25T09:32:37.012Z,11.56
2018-09-25T09:35:10.889Z,11.71
2018-09-25T09:37:44.590Z,11.76
2018-09-25T09:40:18.353Z,11.92
2018-09-25T09:42:51.952Z,12.03
2018-09-25T09:45:25.665Z,12.11
2018-09-25T09:47:59.399Z,12.24
2018-09-25T09:50:33.134Z,12.41
2018-09-25T09:53:06.816Z,12.46
2018-09-25T09:55:40.543Z,12.43
2018-09-25T09:58:14.302Z,12.33
2018-09-25T10:00:48.055Z,12.51
2018-09-25T10:03:21.782Z,12.54
2018-09-25T10:05:55.482Z,12.63
2018-09-25T10:08:29.285Z,12.52
2018-09-25T10:11:02.991Z,12.47
2018-09-25T10:13:36.572Z,12.70
2018-09-25T10:16:10.229Z,12.57
2018-09-25T10:18:44.105Z,12.37
2018-09-25T10:21:17.690Z,12.14
2018-09-25T10:23:51.438Z,11.99
2018-09-25T10:26:25.058Z,12.04
2018-09-25T10:28:58.932Z,11.97
2018-09-25T10:31:32.509Z,12.12
2018-09-25T10:34:06.236Z,12.18
2018-09-25T10:36:39.836Z,12.33
2018-09-25T10:39:14.641Z,12.21
2018-09-25T10:41:48.421Z,12.16
2018-09-25T10:44:22.136Z,12.10
2018-09-25T10:46:55.845Z,12.22
2018-09-25T10:49:29.593Z,12.12
2018-09-25T10:52:03.209Z,12.16
2018-09-25T10:54:36.770Z,12.28
2018-09-25T10:57:10.525Z,12.72
2018-09-25T10:59:44.265Z,12.88
2018-09-25T11:02:17.920Z,12.97
2018-09-25T11:04:51.478Z,13.13
2018-09-25T11:07:25.073Z,13.01
2018-09-25T11:09:58.776Z,13.01
2018-09-25T11:12:32.465Z,12.95
2018-09-25T11:15:06.149Z,12.60
2018-09-25T11:17:39.889Z,12.50
2018-09-25T11:20:13.701Z,12.42
2018-09-25T11:22:47.379Z,12.78
2018-09-25T11:25:21.144Z,12.90
2018-09-25T11:27:54.738Z,12.79
2018-09-25T11:30:28.333Z,12.68
2018-09-25T11:33:02.081Z,12.49
2018-09-25T11:35:35.578Z,12.54
2018-09-25T11:38:09.172Z,12.83
2018-09-25T11:40:42.797Z,13.11
2018-09-25T11:43:16.526Z,13.42
2018-09-25T11:45:50.123Z,13.63
2018-09-25T11:48:23.705Z,14.07
2018-09-25T11:50:57.377Z,14.41
2018-09-25T11:53:31.038Z,14.57
2018-09-25T11:56:04.724Z,14.45
2018-09-25T11:58:38.518Z,14.68
2018-09-25T12:01:12.089Z,14.88
2018-09-25T12:03:45.848Z,14.92
2018-09-25T12:06:19.686Z,14.86
2018-09-25T12:08:53.354Z,14.96
2018-09-25T12:11:27.038Z,15.17
2018-09-25T12:14:00.816Z,15.18
2018-09-25T12:16:34.461Z,15.59
2018-09-25T12:19:08.366Z,15.67
2018-09-25T12:21:41.999Z,15.90
2018-09-25T12:24:15.698Z,16.11
2018-09-25T12:26:49.382Z,16.40
2018-09-25T12:29:24.101Z,16.35
2018-09-25T12:31:58.068Z,16.35
2018-09-25T12:34:31.657Z,16.24
2018-09-25T12:37:05.460Z,16.10
2018-09-25T12:39:39.219Z,15.83
2018-09-25T12:42:13.173Z,16.00
2018-09-25T12:44:46.903Z,16.11
2018-09-25T12:47:20.503Z,16.08
2018-09-25T12:49:54.196Z,16.22
2018-09-25T12:52:27.733Z,16.14
2018-09-25T12:55:01.425Z,15.98
2018-09-25T12:57:35.153Z,16.12
2018-09-25T13:00:08.889Z,16.44
2018-09-25T13:02:42.590Z,16.30
2018-09-25T13:05:16.343Z,16.34
2018-09-25T13:07:50.180Z,16.92
2018-09-25T13:10:23.897Z,18.36
2018-09-25T13:12:57.509Z,19.03
2018-09-25T13:15:31.291Z,18.15
2018-09-25T13:18:04.889Z,19.26
2018-09-25T13:20:38.669Z,19.60
2018-09-25T13:23:13.217Z,20.26
2018-09-25T13:25:46.730Z,20.82
2018-09-25T13:28:20.353Z,21.94
2018-09-25T13:30:54.169Z,22.30
2018-09-25T13:33:27.850Z,22.42
2018-09-25T13:36:01.546Z,22.05
2018-09-25T13:38:35.327Z,22.64
2018-09-25T13:41:08.950Z,24.48
2018-09-25T13:43:42.569Z,23.73
2018-09-25T13:46:16.325Z,23.82
2018-09-25T13:48:49.913Z,23.57
2018-09-25T13:51:23.754Z,23.51
2018-09-25T13:53:57.601Z,22.43
2018-09-25T13:56:31.365Z,22.67
2018-09-25T13:59:05.048Z,22.86
2018-09-25T14:01:38.822Z,23.53
2018-09-25T14:04:15.750Z,23.47
2018-09-25T14:06:49.547Z,23.17
2018-09-25T14:09:23.365Z,23.03
2018-09-25T14:11:57.085Z,22.91
2018-09-25T14:14:30.859Z,23.96
2018-09-25T14:17:04.572Z,23.23
2018-09-25T14:19:39.063Z,23.53
2018-09-25T14:22:27.505Z,22.96
2018-09-25T14:25:01.436Z,24.16
2018-09-25T14:27:35.242Z,23.22
2018-09-25T14:30:09.785Z,22.99
2018-09-25T14:32:43.606Z,23.73
2018-09-25T14:35:17.347Z,22.34
2018-09-25T14:37:51.143Z,21.52
2018-09-25T14:40:24.934Z,21.48
2018-09-25T14:42:58.722Z,21.68
2018-09-25T14:45:32.457Z,21.58
2018-09-25T14:48:06.210Z,21.32
2018-09-25T14:50:39.829Z,21.38
2018-09-25T14:53:13.657Z,22.20
2018-09-25T14:55:47.259Z,22.36
2018-09-25T14:58:20.857Z,21.49
2018-09-25T15:00:54.700Z,21.55
2018-09-25T15:03:28.409Z,21.11
2018-09-25T15:06:02.165Z,20.48
2018-09-25T15:08:35.997Z,20.34
2018-09-25T15:11:09.611Z,20.16
2018-09-25T15:13:43.334Z,19.41
2018-09-25T15:16:17.017Z,19.72
2018-09-25T15:18:50.794Z,20.15
2018-09-25T15:21:24.675Z,20.29
2018-09-25T15:23:58.477Z,20.95
2018-09-25T15:26:32.198Z,20.41
2018-09-25T15:29:05.916Z,20.13
2018-09-25T15:31:39.701Z,20.31
2018-09-25T15:34:13.656Z,21.35
2018-09-25T15:36:48.186Z,21.63
2018-09-25T15:39:22.403Z,22.09
2018-09-25T15:42:00.960Z,21.07
2018-09-25T15:44:34.583Z,21.26
2018-09-25T15:47:08.304Z,20.71
2018-09-25T15:49:42.203Z,20.69
2018-09-25T15:52:16.008Z,20.83
2018-09-25T15:54:49.674Z,20.92
2018-09-25T15:57:23.318Z,20.78
2018-09-25T15:59:57.037Z,20.58
2018-09-25T16:02:30.746Z,19.80
2018-09-25T16:05:04.477Z,18.75
2018-09-25T16:07:38.444Z,18.30
2018-09-25T16:10:12.185Z,17.67
2018-09-25T16:12:46.041Z,17.40
2018-09-25T16:15:19.849Z,17.27
2018-09-25T16:17:53.705Z,17.34
2018-09-25T16:20:27.319Z,17.08
2018-09-25T16:23:01.098Z,17.23
2018-09-25T16:25:34.717Z,17.62
2018-09-25T16:28:08.467Z,18.24
2018-09-25T16:30:42.220Z,18.41
2018-09-25T16:33:16.025Z,18.62
2018-09-25T16:35:49.757Z,19.12
2018-09-25T16:38:23.390Z,18.98
2018-09-25T16:40:57.142Z,18.22
2018-09-25T16:43:30.988Z,17.24
2018-09-25T16:46:04.936Z,16.49
2018-09-25T16:48:38.745Z,15.83
2018-09-25T16:51:12.478Z,15.35
2018-09-25T16:53:46.193Z,14.94
2018-09-25T16:56:19.797Z,14.56
2018-09-25T16:58:53.525Z,14.20
2018-09-25T17:01:27.288Z,13.99
2018-09-25T17:04:01.062Z,13.74
2018-09-25T17:06:35.688Z,13.58
2018-09-25T17:09:10.522Z,13.39
2018-09-25T17:11:44.305Z,13.19
2018-09-25T17:14:19.077Z,13.09
2018-09-25T17:16:52.846Z,12.97
2018-09-25T17:19:26.505Z,12.86
2018-09-25T17:22:00.262Z,12.76
2018-09-25T17:24:39.440Z,12.59
2018-09-25T17:27:13.237Z,12.53
2018-09-25T17:29:47.042Z,12.42
2018-09-25T17:32:20.682Z,12.24
2018-09-25T17:34:54.241Z,12.16
2018-09-25T17:37:28.054Z,12.00
2018-09-25T17:40:01.935Z,11.94
2018-09-25T17:42:35.654Z,11.81
2018-09-25T17:45:09.533Z,11.79
2018-09-25T17:47:43.163Z,11.75
2018-09-25T17:50:16.906Z,11.59
2018-09-25T17:52:51.681Z,11.54
2018-09-25T17:55:25.257Z,11.46
2018-09-25T17:57:58.966Z,11.40
2018-09-25T18:00:32.763Z,11.36
2018-09-25T18:03:06.865Z,11.24
2018-09-25T18:05:40.806Z,11.16
2018-09-25T18:08:14.734Z,11.07
2018-09-25T18:10:48.709Z,10.97
2018-09-25T18:13:23.621Z,10.90
2018-09-25T18:15:57.403Z,10.77
2018-09-25T18:18:31.261Z,10.66
2018-09-25T18:21:06.300Z,10.64
2018-09-25T18:23:40.297Z,10.57
2018-09-25T18:26:14.349Z,10.55
2018-09-25T18:28:48.050Z,10.55
2018-09-25T18:31:21.726Z,10.48
2018-09-25T18:33:55.489Z,10.45
2018-09-25T18:36:30.420Z,10.44
2018-09-25T18:39:04.294Z,10.32
2018-09-25T18:41:38.917Z,10.25
2018-09-25T18:44:12.962Z,10.22
2018-09-25T18:46:47.992Z,10.22
2018-09-25T18:49:23.323Z,10.13
2018-09-25T18:51:57.223Z,10.09
2018-09-25T18:54:31.090Z,10.07
2018-09-25T18:57:06.014Z,10.03
2018-09-25T18:59:43.283Z,9.96
2018-09-25T19:02:17.932Z,9.90
2018-09-25T19:04:51.797Z,9.94
2018-09-25T19:07:25.427Z,9.88
2018-09-25T19:09:59.457Z,9.92
2018-09-25T19:12:33.135Z,9.92
2018-09-25T19:15:07.025Z,9.88
2018-09-25T19:17:40.781Z,9.80
2018-09-25T19:20:21.231Z,9.77
2018-09-25T19:22:55.594Z,9.70
2018-09-25T19:25:29.494Z,9.63
2018-09-25T19:28:03.246Z,9.55
2018-09-25T19:30:36.877Z,9.54
2018-09-25T19:33:10.467Z,9.44
2018-09-25T19:35:44.251Z,9.43
2018-09-25T19:38:18.152Z,9.37
2018-09-25T19:40:51.875Z,9.34
2018-09-25T19:43:25.768Z,9.35
2018-09-25T19:45:59.550Z,9.36
2018-09-25T19:48:33.166Z,9.28
2018-09-25T19:51:06.821Z,9.24
2018-09-25T19:53:47.677Z,9.23
2018-09-25T19:56:21.540Z,9.14
2018-09-25T19:58:55.442Z,9.11
2018-09-25T20:01:29.341Z,9.14
2018-09-25T20:04:03.293Z,8.96
2018-09-25T20:06:37.151Z,8.82
2018-09-25T20:09:13.225Z,8.79
2018-09-25T20:11:47.061Z,8.76
2018-09-25T20:14:21.098Z,8.63
2018-09-25T20:16:54.737Z,8.61
2018-09-25T20:19:32.256Z,8.58
2018-09-25T20:22:06.178Z,8.51
2018-09-25T20:24:40.372Z,8.49
2018-09-25T20:27:14.503Z,8.55
2018-09-25T20:29:48.304Z,8.57
2018-09-25T20:32:22.114Z,8.56
2018-09-25T20:34:56.066Z,8.48
2018-09-25T20:37:29.891Z,8.40
2018-09-25T20:40:03.837Z,8.28
2018-09-25T20:42:37.857Z,8.20
2018-09-25T20:45:28.406Z,8.17
2018-09-25T20:48:02.461Z,8.14
2018-09-25T20:50:36.157Z,8.17
2018-09-25T20:53:10.291Z,8.18
2018-09-25T20:55:43.915Z,8.21
2018-09-25T20:58:17.682Z,8.26
2018-09-25T21:00:51.333Z,8.28
2018-09-25T21:03:24.973Z,8.22
2018-09-25T21:05:58.629Z,8.16
2018-09-25T21:08:32.431Z,8.11
2018-09-25T21:11:06.169Z,8.04
2018-09-25T21:13:39.881Z,8.05
2018-09-25T21:16:13.743Z,7.94
2018-09-25T21:18:47.557Z,7.96
2018-09-25T21:21:21.312Z,7.91
2018-09-25T21:23:55.074Z,7.89
2018-09-25T21:26:28.832Z,7.87
2018-09-25T21:29:02.513Z,7.84
2018-09-25T21:31:36.222Z,7.83
2018-09-25T21:34:09.939Z,7.85
2018-09-25T21:36:43.472Z,7.79
2018-09-25T21:39:17.181Z,7.65
2018-09-25T21:41:50.973Z,7.74
2018-09-25T21:44:24.609Z,7.69
2018-09-25T21:46:58.303Z,7.63
2018-09-25T21:49:31.945Z,7.57
2018-09-25T21:52:05.451Z,7.54
2018-09-25T21:54:39.050Z,7.59
2018-09-25T21:57:13.023Z,7.59
2018-09-25T21:59:46.418Z,7.64
2018-09-25T22:02:20.109Z,7.58
2018-09-25T22:04:53.833Z,7.53
2018-09-25T22:07:27.924Z,7.49
2018-09-25T22:10:01.650Z,7.46
2018-09-25T22:12:35.343Z,7.41
2018-09-25T22:15:08.950Z,7.38
2018-09-25T22:17:42.597Z,7.40
2018-09-25T22:20:16.266Z,7.36
2018-09-25T22:22:50.081Z,7.35
2018-09-25T22:25:23.613Z,7.33
2018-09-25T22:27:57.270Z,7.33
2018-09-25T22:30:30.990Z,7.26
2018-09-25T22:33:04.766Z,7.30
2018-09-25T22:35:38.485Z,7.36
2018-09-25T22:38:12.274Z,7.37
2018-09-25T22:40:46.021Z,7.36
2018-09-25T22:43:19.785Z,7.40
2018-09-25T22:45:53.351Z,7.42
2018-09-25T22:48:27.106Z,7.48
2018-09-25T22:51:00.877Z,7.42
2018-09-25T22:53:34.620Z,7.48
2018-09-25T22:56:08.440Z,7.51
2018-09-25T22:58:42.213Z,7.51
2018-09-25T23:01:16.073Z,7.47
2018-09-25T23:03:49.733Z,7.52
2018-09-25T23:06:23.484Z,7.52
2018-09-25T23:08:57.202Z,7.50
2018-09-25T23:11:31.071Z,7.51
2018-09-25T23:14:04.685Z,7.53
2018-09-25T23:16:38.397Z,7.51
2018-09-25T23:19:12.351Z,7.51
2018-09-25T23:21:46.110Z,7.46
2018-09-25T23:24:19.826Z,7.48
2018-09-25T23:26:53.327Z,7.48
2018-09-25T23:29:27.141Z,7.47
2018-09-25T23:32:00.577Z,7.47
2018-09-25T23:34:34.339Z,7.26
2018-09-25T23:37:07.939Z,7.16
2018-09-25T23:39:41.189Z,7.10
2018-09-25T23:42:16.305Z,7.05
2018-09-25T23:44:50.903Z,7.07
2018-09-25T23:47:25.821Z,7.05
2018-09-25T23:50:03.373Z,7.08
2018-09-25T23:52:36.395Z,7.04
2018-09-25T23:55:13.357Z,7.05
2018-09-25T23:57:52.932Z,7.01
